sensor_id;sensor_type;location;lat;lon;timestamp;P1;durP1;ratioP1;P2;durP2;ratioP2
1350;SDS011;669;50.206;9.998;2024-01-07T00:02:23;7.30;;;4.07;;
1350;SDS011;669;50.206;9.998;2024-01-07T00:04:52;6.10;;;4.27;;
1350;SDS011;669;50.206;9.998;2024-01-07T00:07:20;4.57;;;4.10;;
1350;SDS011;669;50.206;9.998;2024-01-07T00:09:48;3.90;;;3.20;;
1350;SDS011;669;50.206;9.998;2024-01-07T00:12:16;5.73;;;3.80;;
1350;SDS011;669;50.206;9.998;2024-01-07T00:14:44;4.37;;;3.97;;
1350;SDS011;669;50.206;9.998;2024-01-07T00:17:12;6.13;;;5.50;;
1350;SDS011;669;50.206;9.998;2024-01-07T00:19:40;5.20;;;4.60;;
1350;SDS011;669;50.206;9.998;2024-01-07T00:22:09;8.10;;;5.97;;
1350;SDS011;669;50.206;9.998;2024-01-07T00:24:37;8.40;;;5.17;;
1350;SDS011;669;50.206;9.998;2024-01-07T00:27:05;6.57;;;5.60;;
1350;SDS011;669;50.206;9.998;2024-01-07T00:29:34;7.60;;;4.70;;
1350;SDS011;669;50.206;9.998;2024-01-07T00:32:03;6.37;;;5.67;;
1350;SDS011;669;50.206;9.998;2024-01-07T00:34:32;6.97;;;6.27;;
1350;SDS011;669;50.206;9.998;2024-01-07T00:37:00;6.50;;;5.40;;
1350;SDS011;669;50.206;9.998;2024-01-07T00:39:29;8.63;;;6.10;;
1350;SDS011;669;50.206;9.998;2024-01-07T00:41:57;7.27;;;6.20;;
1350;SDS011;669;50.206;9.998;2024-01-07T00:44:25;7.50;;;5.80;;
1350;SDS011;669;50.206;9.998;2024-01-07T00:46:53;10.80;;;6.80;;
1350;SDS011;669;50.206;9.998;2024-01-07T00:49:21;5.77;;;4.87;;
1350;SDS011;669;50.206;9.998;2024-01-07T00:51:49;5.87;;;5.27;;
1350;SDS011;669;50.206;9.998;2024-01-07T00:54:17;6.10;;;5.00;;
1350;SDS011;669;50.206;9.998;2024-01-07T00:56:46;7.40;;;6.00;;
1350;SDS011;669;50.206;9.998;2024-01-07T00:59:14;10.70;;;7.33;;
1350;SDS011;669;50.206;9.998;2024-01-07T01:01:42;8.40;;;6.90;;
1350;SDS011;669;50.206;9.998;2024-01-07T01:04:10;16.17;;;8.77;;
1350;SDS011;669;50.206;9.998;2024-01-07T01:06:38;9.10;;;6.93;;
1350;SDS011;669;50.206;9.998;2024-01-07T01:09:06;9.37;;;6.53;;
1350;SDS011;669;50.206;9.998;2024-01-07T01:11:35;12.80;;;8.73;;
1350;SDS011;669;50.206;9.998;2024-01-07T01:14:04;7.43;;;6.43;;
1350;SDS011;669;50.206;9.998;2024-01-07T01:16:32;10.00;;;6.87;;
1350;SDS011;669;50.206;9.998;2024-01-07T01:19:00;10.90;;;7.77;;
1350;SDS011;669;50.206;9.998;2024-01-07T01:21:28;9.30;;;7.77;;
1350;SDS011;669;50.206;9.998;2024-01-07T01:23:56;9.40;;;7.33;;
1350;SDS011;669;50.206;9.998;2024-01-07T01:26:24;12.23;;;9.67;;
1350;SDS011;669;50.206;9.998;2024-01-07T01:28:52;14.77;;;8.57;;
1350;SDS011;669;50.206;9.998;2024-01-07T01:31:21;9.07;;;6.93;;
1350;SDS011;669;50.206;9.998;2024-01-07T01:33:49;10.43;;;8.47;;
1350;SDS011;669;50.206;9.998;2024-01-07T01:36:17;11.37;;;8.37;;
1350;SDS011;669;50.206;9.998;2024-01-07T01:38:45;8.30;;;7.30;;
1350;SDS011;669;50.206;9.998;2024-01-07T01:41:15;12.47;;;9.23;;
1350;SDS011;669;50.206;9.998;2024-01-07T01:43:43;10.13;;;8.83;;
1350;SDS011;669;50.206;9.998;2024-01-07T01:46:11;13.53;;;8.50;;
1350;SDS011;669;50.206;9.998;2024-01-07T01:48:41;13.20;;;8.70;;
1350;SDS011;669;50.206;9.998;2024-01-07T01:51:09;9.50;;;7.90;;
1350;SDS011;669;50.206;9.998;2024-01-07T01:53:38;13.70;;;8.87;;
1350;SDS011;669;50.206;9.998;2024-01-07T01:56:06;13.30;;;9.43;;
1350;SDS011;669;50.206;9.998;2024-01-07T01:58:34;13.30;;;9.23;;
1350;SDS011;669;50.206;9.998;2024-01-07T02:01:03;13.30;;;9.33;;
1350;SDS011;669;50.206;9.998;2024-01-07T02:03:31;15.53;;;8.73;;
1350;SDS011;669;50.206;9.998;2024-01-07T02:06:01;13.97;;;7.87;;
1350;SDS011;669;50.206;9.998;2024-01-07T02:08:29;12.00;;;8.53;;
1350;SDS011;669;50.206;9.998;2024-01-07T02:10:57;12.27;;;8.07;;
1350;SDS011;669;50.206;9.998;2024-01-07T02:13:25;12.87;;;8.73;;
1350;SDS011;669;50.206;9.998;2024-01-07T02:15:53;12.67;;;8.33;;
1350;SDS011;669;50.206;9.998;2024-01-07T02:18:21;14.40;;;9.30;;
1350;SDS011;669;50.206;9.998;2024-01-07T02:20:49;11.17;;;7.80;;
1350;SDS011;669;50.206;9.998;2024-01-07T02:23:18;12.00;;;7.90;;
1350;SDS011;669;50.206;9.998;2024-01-07T02:25:48;11.60;;;8.23;;
1350;SDS011;669;50.206;9.998;2024-01-07T02:28:16;11.07;;;7.70;;
1350;SDS011;669;50.206;9.998;2024-01-07T02:30:44;12.47;;;9.43;;
1350;SDS011;669;50.206;9.998;2024-01-07T02:33:12;10.13;;;7.37;;
1350;SDS011;669;50.206;9.998;2024-01-07T02:35:40;11.20;;;7.80;;
1350;SDS011;669;50.206;9.998;2024-01-07T02:38:08;9.83;;;7.30;;
1350;SDS011;669;50.206;9.998;2024-01-07T02:40:36;9.77;;;7.10;;
1350;SDS011;669;50.206;9.998;2024-01-07T02:43:05;11.70;;;8.03;;
1350;SDS011;669;50.206;9.998;2024-01-07T02:45:33;9.47;;;7.40;;
1350;SDS011;669;50.206;9.998;2024-01-07T02:48:01;14.60;;;7.80;;
1350;SDS011;669;50.206;9.998;2024-01-07T02:50:29;9.03;;;8.00;;
1350;SDS011;669;50.206;9.998;2024-01-07T02:52:57;9.30;;;5.87;;
1350;SDS011;669;50.206;9.998;2024-01-07T02:55:25;7.83;;;5.70;;
1350;SDS011;669;50.206;9.998;2024-01-07T02:57:53;10.83;;;7.73;;
1350;SDS011;669;50.206;9.998;2024-01-07T03:00:22;6.70;;;5.60;;
1350;SDS011;669;50.206;9.998;2024-01-07T03:02:50;11.40;;;6.97;;
1350;SDS011;669;50.206;9.998;2024-01-07T03:05:19;8.77;;;6.70;;
1350;SDS011;669;50.206;9.998;2024-01-07T03:07:47;7.60;;;6.10;;
1350;SDS011;669;50.206;9.998;2024-01-07T03:10:15;11.30;;;7.20;;
1350;SDS011;669;50.206;9.998;2024-01-07T03:12:43;12.00;;;7.67;;
1350;SDS011;669;50.206;9.998;2024-01-07T03:15:11;10.20;;;6.90;;
1350;SDS011;669;50.206;9.998;2024-01-07T03:17:40;11.20;;;7.53;;
1350;SDS011;669;50.206;9.998;2024-01-07T03:20:10;10.27;;;7.13;;
1350;SDS011;669;50.206;9.998;2024-01-07T03:22:38;10.07;;;7.43;;
1350;SDS011;669;50.206;9.998;2024-01-07T03:25:07;10.20;;;6.90;;
1350;SDS011;669;50.206;9.998;2024-01-07T03:27:35;9.07;;;7.13;;
1350;SDS011;669;50.206;9.998;2024-01-07T03:30:03;10.60;;;7.70;;
1350;SDS011;669;50.206;9.998;2024-01-07T03:32:32;12.27;;;8.47;;
1350;SDS011;669;50.206;9.998;2024-01-07T03:35:01;9.80;;;7.27;;
1350;SDS011;669;50.206;9.998;2024-01-07T03:37:29;11.67;;;7.70;;
1350;SDS011;669;50.206;9.998;2024-01-07T03:39:57;12.40;;;7.93;;
1350;SDS011;669;50.206;9.998;2024-01-07T03:42:26;10.07;;;7.20;;
1350;SDS011;669;50.206;9.998;2024-01-07T03:44:54;9.80;;;6.80;;
1350;SDS011;669;50.206;9.998;2024-01-07T03:47:22;12.83;;;8.10;;
1350;SDS011;669;50.206;9.998;2024-01-07T03:49:50;15.43;;;9.23;;
1350;SDS011;669;50.206;9.998;2024-01-07T03:52:19;8.73;;;6.63;;
1350;SDS011;669;50.206;9.998;2024-01-07T03:54:47;11.13;;;6.87;;
1350;SDS011;669;50.206;9.998;2024-01-07T03:57:15;8.70;;;6.57;;
1350;SDS011;669;50.206;9.998;2024-01-07T03:59:43;10.07;;;6.83;;
1350;SDS011;669;50.206;9.998;2024-01-07T04:02:11;11.13;;;7.47;;
1350;SDS011;669;50.206;9.998;2024-01-07T04:04:42;11.03;;;6.90;;
1350;SDS011;669;50.206;9.998;2024-01-07T04:07:10;7.47;;;6.30;;
1350;SDS011;669;50.206;9.998;2024-01-07T04:09:40;10.80;;;6.20;;
1350;SDS011;669;50.206;9.998;2024-01-07T04:12:10;10.03;;;5.60;;
1350;SDS011;669;50.206;9.998;2024-01-07T04:14:38;5.30;;;4.80;;
1350;SDS011;669;50.206;9.998;2024-01-07T04:17:05;8.93;;;6.30;;
1350;SDS011;669;50.206;9.998;2024-01-07T04:19:36;6.90;;;5.73;;
1350;SDS011;669;50.206;9.998;2024-01-07T04:22:05;7.60;;;5.57;;
1350;SDS011;669;50.206;9.998;2024-01-07T04:24:33;6.57;;;4.93;;
1350;SDS011;669;50.206;9.998;2024-01-07T04:27:02;6.83;;;4.60;;
1350;SDS011;669;50.206;9.998;2024-01-07T04:29:31;9.90;;;5.33;;
1350;SDS011;669;50.206;9.998;2024-01-07T04:31:58;7.40;;;4.63;;
1350;SDS011;669;50.206;9.998;2024-01-07T04:34:26;5.70;;;4.83;;
1350;SDS011;669;50.206;9.998;2024-01-07T04:36:55;6.90;;;5.50;;
1350;SDS011;669;50.206;9.998;2024-01-07T04:39:22;8.63;;;4.77;;
1350;SDS011;669;50.206;9.998;2024-01-07T04:41:50;6.20;;;5.60;;
1350;SDS011;669;50.206;9.998;2024-01-07T04:44:20;13.57;;;7.27;;
1350;SDS011;669;50.206;9.998;2024-01-07T04:46:48;7.80;;;6.17;;
1350;SDS011;669;50.206;9.998;2024-01-07T04:49:16;6.47;;;5.20;;
1350;SDS011;669;50.206;9.998;2024-01-07T04:51:44;8.40;;;5.03;;
1350;SDS011;669;50.206;9.998;2024-01-07T04:54:11;10.33;;;6.20;;
1350;SDS011;669;50.206;9.998;2024-01-07T04:56:39;6.33;;;5.30;;
1350;SDS011;669;50.206;9.998;2024-01-07T04:59:07;7.83;;;5.17;;
1350;SDS011;669;50.206;9.998;2024-01-07T05:01:36;6.93;;;5.87;;
1350;SDS011;669;50.206;9.998;2024-01-07T05:04:05;7.70;;;5.63;;
1350;SDS011;669;50.206;9.998;2024-01-07T05:06:33;10.90;;;6.73;;
1350;SDS011;669;50.206;9.998;2024-01-07T05:09:01;7.20;;;4.97;;
1350;SDS011;669;50.206;9.998;2024-01-07T05:11:29;6.73;;;5.33;;
1350;SDS011;669;50.206;9.998;2024-01-07T05:13:58;8.13;;;5.73;;
1350;SDS011;669;50.206;9.998;2024-01-07T05:16:26;8.43;;;5.47;;
1350;SDS011;669;50.206;9.998;2024-01-07T05:18:55;6.73;;;4.97;;
1350;SDS011;669;50.206;9.998;2024-01-07T05:21:23;10.23;;;6.17;;
1350;SDS011;669;50.206;9.998;2024-01-07T05:23:51;8.57;;;4.47;;
1350;SDS011;669;50.206;9.998;2024-01-07T05:26:19;5.43;;;4.73;;
1350;SDS011;669;50.206;9.998;2024-01-07T05:28:47;5.03;;;4.40;;
1350;SDS011;669;50.206;9.998;2024-01-07T05:31:15;8.80;;;5.87;;
1350;SDS011;669;50.206;9.998;2024-01-07T05:33:43;5.87;;;4.90;;
1350;SDS011;669;50.206;9.998;2024-01-07T05:36:13;6.67;;;4.70;;
1350;SDS011;669;50.206;9.998;2024-01-07T05:38:41;6.33;;;4.87;;
1350;SDS011;669;50.206;9.998;2024-01-07T05:41:09;6.60;;;4.93;;
1350;SDS011;669;50.206;9.998;2024-01-07T05:43:37;9.33;;;5.27;;
1350;SDS011;669;50.206;9.998;2024-01-07T05:46:05;6.77;;;5.50;;
1350;SDS011;669;50.206;9.998;2024-01-07T05:48:40;8.27;;;5.67;;
1350;SDS011;669;50.206;9.998;2024-01-07T05:51:09;9.93;;;6.37;;
1350;SDS011;669;50.206;9.998;2024-01-07T05:53:39;7.43;;;5.47;;
1350;SDS011;669;50.206;9.998;2024-01-07T05:56:07;4.80;;;4.00;;
1350;SDS011;669;50.206;9.998;2024-01-07T05:58:35;6.63;;;5.30;;
1350;SDS011;669;50.206;9.998;2024-01-07T06:01:03;7.17;;;5.03;;
1350;SDS011;669;50.206;9.998;2024-01-07T06:03:31;10.13;;;6.17;;
1350;SDS011;669;50.206;9.998;2024-01-07T06:06:00;7.20;;;6.47;;
1350;SDS011;669;50.206;9.998;2024-01-07T06:08:28;5.10;;;4.40;;
1350;SDS011;669;50.206;9.998;2024-01-07T06:10:57;6.17;;;5.20;;
1350;SDS011;669;50.206;9.998;2024-01-07T06:13:25;5.80;;;4.70;;
1350;SDS011;669;50.206;9.998;2024-01-07T06:15:53;7.50;;;4.70;;
1350;SDS011;669;50.206;9.998;2024-01-07T06:18:21;6.17;;;4.57;;
1350;SDS011;669;50.206;9.998;2024-01-07T06:20:49;7.80;;;4.80;;
1350;SDS011;669;50.206;9.998;2024-01-07T06:23:17;6.03;;;4.77;;
1350;SDS011;669;50.206;9.998;2024-01-07T06:25:45;6.80;;;4.63;;
1350;SDS011;669;50.206;9.998;2024-01-07T06:28:14;10.30;;;6.23;;
1350;SDS011;669;50.206;9.998;2024-01-07T06:30:42;8.23;;;5.10;;
1350;SDS011;669;50.206;9.998;2024-01-07T06:33:10;6.37;;;4.97;;
1350;SDS011;669;50.206;9.998;2024-01-07T06:35:39;5.13;;;3.83;;
1350;SDS011;669;50.206;9.998;2024-01-07T06:38:07;6.70;;;5.07;;
1350;SDS011;669;50.206;9.998;2024-01-07T06:40:35;6.40;;;5.00;;
1350;SDS011;669;50.206;9.998;2024-01-07T06:43:03;6.03;;;4.50;;
1350;SDS011;669;50.206;9.998;2024-01-07T06:45:32;7.47;;;4.80;;
1350;SDS011;669;50.206;9.998;2024-01-07T06:48:00;7.20;;;4.60;;
1350;SDS011;669;50.206;9.998;2024-01-07T06:50:28;5.37;;;4.13;;
1350;SDS011;669;50.206;9.998;2024-01-07T06:52:56;6.60;;;4.30;;
1350;SDS011;669;50.206;9.998;2024-01-07T06:55:24;4.40;;;3.80;;
1350;SDS011;669;50.206;9.998;2024-01-07T06:57:52;5.90;;;4.30;;
1350;SDS011;669;50.206;9.998;2024-01-07T07:00:20;4.63;;;3.63;;
1350;SDS011;669;50.206;9.998;2024-01-07T07:02:51;6.00;;;4.77;;
1350;SDS011;669;50.206;9.998;2024-01-07T07:05:19;7.10;;;4.33;;
1350;SDS011;669;50.206;9.998;2024-01-07T07:07:46;4.63;;;4.20;;
1350;SDS011;669;50.206;9.998;2024-01-07T07:10:16;5.80;;;4.77;;
1350;SDS011;669;50.206;9.998;2024-01-07T07:12:44;5.47;;;4.10;;
1350;SDS011;669;50.206;9.998;2024-01-07T07:15:12;4.83;;;4.10;;
1350;SDS011;669;50.206;9.998;2024-01-07T07:17:40;5.20;;;4.43;;
1350;SDS011;669;50.206;9.998;2024-01-07T07:20:10;6.80;;;4.57;;
1350;SDS011;669;50.206;9.998;2024-01-07T07:22:39;5.03;;;4.20;;
1350;SDS011;669;50.206;9.998;2024-01-07T07:25:07;4.87;;;4.37;;
1350;SDS011;669;50.206;9.998;2024-01-07T07:27:35;5.70;;;4.90;;
1350;SDS011;669;50.206;9.998;2024-01-07T07:30:04;5.87;;;5.00;;
1350;SDS011;669;50.206;9.998;2024-01-07T07:32:33;7.00;;;5.20;;
1350;SDS011;669;50.206;9.998;2024-01-07T07:35:02;5.00;;;4.50;;
1350;SDS011;669;50.206;9.998;2024-01-07T07:37:31;7.37;;;5.10;;
1350;SDS011;669;50.206;9.998;2024-01-07T07:39:59;7.13;;;4.97;;
1350;SDS011;669;50.206;9.998;2024-01-07T07:42:27;5.77;;;4.27;;
1350;SDS011;669;50.206;9.998;2024-01-07T07:44:56;6.30;;;4.60;;
1350;SDS011;669;50.206;9.998;2024-01-07T07:47:24;5.90;;;5.30;;
1350;SDS011;669;50.206;9.998;2024-01-07T07:49:52;8.13;;;5.70;;
1350;SDS011;669;50.206;9.998;2024-01-07T07:52:20;7.83;;;5.40;;
1350;SDS011;669;50.206;9.998;2024-01-07T07:54:53;8.10;;;5.97;;
1350;SDS011;669;50.206;9.998;2024-01-07T07:57:21;6.63;;;5.33;;
1350;SDS011;669;50.206;9.998;2024-01-07T07:59:51;5.57;;;4.43;;
1350;SDS011;669;50.206;9.998;2024-01-07T08:02:19;8.60;;;5.80;;
1350;SDS011;669;50.206;9.998;2024-01-07T08:04:48;7.10;;;6.10;;
1350;SDS011;669;50.206;9.998;2024-01-07T08:07:16;8.07;;;6.40;;
1350;SDS011;669;50.206;9.998;2024-01-07T08:09:44;8.73;;;6.10;;
1350;SDS011;669;50.206;9.998;2024-01-07T08:12:15;7.37;;;5.60;;
1350;SDS011;669;50.206;9.998;2024-01-07T08:14:42;7.33;;;5.93;;
1350;SDS011;669;50.206;9.998;2024-01-07T08:17:10;9.70;;;6.33;;
1350;SDS011;669;50.206;9.998;2024-01-07T08:19:38;7.83;;;5.90;;
1350;SDS011;669;50.206;9.998;2024-01-07T08:22:07;9.10;;;6.57;;
1350;SDS011;669;50.206;9.998;2024-01-07T08:24:35;9.57;;;6.40;;
1350;SDS011;669;50.206;9.998;2024-01-07T08:27:04;10.73;;;7.20;;
1350;SDS011;669;50.206;9.998;2024-01-07T08:29:33;10.63;;;7.33;;
1350;SDS011;669;50.206;9.998;2024-01-07T08:32:01;8.60;;;6.97;;
1350;SDS011;669;50.206;9.998;2024-01-07T08:34:29;11.23;;;7.30;;
1350;SDS011;669;50.206;9.998;2024-01-07T08:36:57;10.37;;;7.77;;
1350;SDS011;669;50.206;9.998;2024-01-07T08:39:25;11.70;;;7.57;;
1350;SDS011;669;50.206;9.998;2024-01-07T08:41:55;9.87;;;7.00;;
1350;SDS011;669;50.206;9.998;2024-01-07T08:44:24;11.50;;;7.90;;
1350;SDS011;669;50.206;9.998;2024-01-07T08:46:54;11.43;;;8.30;;
1350;SDS011;669;50.206;9.998;2024-01-07T08:49:21;9.83;;;6.60;;
1350;SDS011;669;50.206;9.998;2024-01-07T08:51:50;11.20;;;8.00;;
1350;SDS011;669;50.206;9.998;2024-01-07T08:54:18;10.60;;;8.50;;
1350;SDS011;669;50.206;9.998;2024-01-07T08:56:45;10.53;;;7.50;;
1350;SDS011;669;50.206;9.998;2024-01-07T08:59:13;10.67;;;8.73;;
1350;SDS011;669;50.206;9.998;2024-01-07T09:01:41;9.07;;;6.67;;
1350;SDS011;669;50.206;9.998;2024-01-07T09:04:11;10.83;;;7.00;;
1350;SDS011;669;50.206;9.998;2024-01-07T09:06:39;8.70;;;6.40;;
1350;SDS011;669;50.206;9.998;2024-01-07T09:09:07;8.50;;;6.20;;
1350;SDS011;669;50.206;9.998;2024-01-07T09:11:36;8.93;;;7.33;;
1350;SDS011;669;50.206;9.998;2024-01-07T09:14:04;14.60;;;8.33;;
1350;SDS011;669;50.206;9.998;2024-01-07T09:16:32;9.80;;;7.03;;
1350;SDS011;669;50.206;9.998;2024-01-07T09:19:00;12.13;;;6.80;;
1350;SDS011;669;50.206;9.998;2024-01-07T09:21:29;7.17;;;6.13;;
1350;SDS011;669;50.206;9.998;2024-01-07T09:23:57;8.33;;;5.70;;
1350;SDS011;669;50.206;9.998;2024-01-07T09:26:25;7.70;;;6.17;;
1350;SDS011;669;50.206;9.998;2024-01-07T09:28:54;9.10;;;6.70;;
1350;SDS011;669;50.206;9.998;2024-01-07T09:31:22;7.43;;;6.20;;
1350;SDS011;669;50.206;9.998;2024-01-07T09:33:50;8.60;;;6.13;;
1350;SDS011;669;50.206;9.998;2024-01-07T09:36:19;8.47;;;6.43;;
1350;SDS011;669;50.206;9.998;2024-01-07T09:38:57;10.27;;;6.70;;
1350;SDS011;669;50.206;9.998;2024-01-07T09:41:25;8.47;;;6.97;;
1350;SDS011;669;50.206;9.998;2024-01-07T09:43:53;6.93;;;6.27;;
1350;SDS011;669;50.206;9.998;2024-01-07T09:46:21;7.40;;;5.10;;
1350;SDS011;669;50.206;9.998;2024-01-07T09:48:50;7.37;;;6.00;;
1350;SDS011;669;50.206;9.998;2024-01-07T09:51:19;7.60;;;5.40;;
1350;SDS011;669;50.206;9.998;2024-01-07T09:53:50;11.07;;;6.40;;
1350;SDS011;669;50.206;9.998;2024-01-07T09:56:27;6.40;;;5.47;;
1350;SDS011;669;50.206;9.998;2024-01-07T09:59:02;6.67;;;5.40;;
1350;SDS011;669;50.206;9.998;2024-01-07T10:01:29;8.20;;;5.77;;
1350;SDS011;669;50.206;9.998;2024-01-07T10:03:58;7.47;;;5.67;;
1350;SDS011;669;50.206;9.998;2024-01-07T10:06:27;6.30;;;5.23;;
1350;SDS011;669;50.206;9.998;2024-01-07T10:08:55;10.93;;;5.63;;
1350;SDS011;669;50.206;9.998;2024-01-07T10:11:23;9.30;;;5.90;;
1350;SDS011;669;50.206;9.998;2024-01-07T10:13:52;7.80;;;5.27;;
1350;SDS011;669;50.206;9.998;2024-01-07T10:16:21;8.83;;;6.00;;
1350;SDS011;669;50.206;9.998;2024-01-07T10:18:49;7.03;;;5.30;;
1350;SDS011;669;50.206;9.998;2024-01-07T10:21:17;8.03;;;6.13;;
1350;SDS011;669;50.206;9.998;2024-01-07T10:23:45;8.60;;;5.97;;
1350;SDS011;669;50.206;9.998;2024-01-07T10:26:13;8.40;;;6.30;;
1350;SDS011;669;50.206;9.998;2024-01-07T10:28:54;10.83;;;5.40;;
1350;SDS011;669;50.206;9.998;2024-01-07T10:31:23;5.80;;;4.97;;
1350;SDS011;669;50.206;9.998;2024-01-07T10:33:51;7.77;;;5.93;;
1350;SDS011;669;50.206;9.998;2024-01-07T10:36:20;9.90;;;6.17;;
1350;SDS011;669;50.206;9.998;2024-01-07T10:38:48;9.27;;;5.53;;
1350;SDS011;669;50.206;9.998;2024-01-07T10:41:17;10.27;;;6.47;;
1350;SDS011;669;50.206;9.998;2024-01-07T10:43:46;9.00;;;6.63;;
1350;SDS011;669;50.206;9.998;2024-01-07T10:46:16;7.33;;;5.40;;
1350;SDS011;669;50.206;9.998;2024-01-07T10:48:47;6.83;;;6.00;;
1350;SDS011;669;50.206;9.998;2024-01-07T10:51:27;6.40;;;5.40;;
1350;SDS011;669;50.206;9.998;2024-01-07T10:53:56;8.50;;;6.30;;
1350;SDS011;669;50.206;9.998;2024-01-07T10:56:25;7.37;;;5.80;;
1350;SDS011;669;50.206;9.998;2024-01-07T10:58:59;5.07;;;4.57;;
1350;SDS011;669;50.206;9.998;2024-01-07T11:01:28;7.33;;;4.93;;
1350;SDS011;669;50.206;9.998;2024-01-07T11:03:59;6.60;;;5.07;;
1350;SDS011;669;50.206;9.998;2024-01-07T11:06:33;7.67;;;5.00;;
1350;SDS011;669;50.206;9.998;2024-01-07T11:09:12;5.30;;;4.30;;
1350;SDS011;669;50.206;9.998;2024-01-07T11:11:46;6.77;;;5.43;;
1350;SDS011;669;50.206;9.998;2024-01-07T11:17:06;5.77;;;4.97;;
1350;SDS011;669;50.206;9.998;2024-01-07T11:19:35;7.07;;;4.57;;
1350;SDS011;669;50.206;9.998;2024-01-07T11:22:22;7.60;;;4.87;;
1350;SDS011;669;50.206;9.998;2024-01-07T11:24:51;5.00;;;4.27;;
1350;SDS011;669;50.206;9.998;2024-01-07T11:27:20;6.47;;;5.03;;
1350;SDS011;669;50.206;9.998;2024-01-07T11:29:52;4.30;;;3.77;;
1350;SDS011;669;50.206;9.998;2024-01-07T11:32:23;10.30;;;4.93;;
1350;SDS011;669;50.206;9.998;2024-01-07T11:34:52;7.43;;;5.00;;
1350;SDS011;669;50.206;9.998;2024-01-07T11:37:23;7.20;;;5.00;;
1350;SDS011;669;50.206;9.998;2024-01-07T11:39:51;5.67;;;4.23;;
1350;SDS011;669;50.206;9.998;2024-01-07T11:42:22;14.43;;;5.20;;
1350;SDS011;669;50.206;9.998;2024-01-07T11:44:51;6.03;;;4.73;;
1350;SDS011;669;50.206;9.998;2024-01-07T11:47:20;6.93;;;4.80;;
1350;SDS011;669;50.206;9.998;2024-01-07T11:49:52;6.13;;;4.50;;
1350;SDS011;669;50.206;9.998;2024-01-07T11:52:21;4.87;;;4.37;;
1350;SDS011;669;50.206;9.998;2024-01-07T11:54:49;6.07;;;4.70;;
1350;SDS011;669;50.206;9.998;2024-01-07T11:57:17;6.80;;;4.77;;
1350;SDS011;669;50.206;9.998;2024-01-07T11:59:46;4.93;;;3.80;;
1350;SDS011;669;50.206;9.998;2024-01-07T12:02:13;5.33;;;4.70;;
1350;SDS011;669;50.206;9.998;2024-01-07T12:04:44;7.73;;;4.30;;
1350;SDS011;669;50.206;9.998;2024-01-07T12:07:12;5.40;;;3.90;;
1350;SDS011;669;50.206;9.998;2024-01-07T12:09:41;6.00;;;4.70;;
1350;SDS011;669;50.206;9.998;2024-01-07T12:12:09;7.30;;;4.40;;
1350;SDS011;669;50.206;9.998;2024-01-07T12:14:37;5.13;;;4.00;;
1350;SDS011;669;50.206;9.998;2024-01-07T12:17:05;6.50;;;5.07;;
1350;SDS011;669;50.206;9.998;2024-01-07T12:19:39;5.70;;;4.60;;
1350;SDS011;669;50.206;9.998;2024-01-07T12:22:09;3.97;;;3.60;;
1350;SDS011;669;50.206;9.998;2024-01-07T12:24:37;4.67;;;4.10;;
1350;SDS011;669;50.206;9.998;2024-01-07T12:27:05;4.13;;;3.73;;
1350;SDS011;669;50.206;9.998;2024-01-07T12:29:34;3.43;;;3.13;;
1350;SDS011;669;50.206;9.998;2024-01-07T12:32:02;8.90;;;4.57;;
1350;SDS011;669;50.206;9.998;2024-01-07T12:34:32;4.00;;;3.60;;
1350;SDS011;669;50.206;9.998;2024-01-07T12:37:00;4.70;;;3.43;;
1350;SDS011;669;50.206;9.998;2024-01-07T12:39:30;5.87;;;4.87;;
1350;SDS011;669;50.206;9.998;2024-01-07T12:41:58;7.07;;;4.00;;
1350;SDS011;669;50.206;9.998;2024-01-07T12:44:27;5.63;;;4.77;;
1350;SDS011;669;50.206;9.998;2024-01-07T12:46:55;5.37;;;4.10;;
1350;SDS011;669;50.206;9.998;2024-01-07T12:49:23;5.27;;;3.80;;
1350;SDS011;669;50.206;9.998;2024-01-07T12:51:51;5.07;;;3.47;;
1350;SDS011;669;50.206;9.998;2024-01-07T12:54:19;8.87;;;3.70;;
1350;SDS011;669;50.206;9.998;2024-01-07T12:56:51;6.70;;;4.23;;
1350;SDS011;669;50.206;9.998;2024-01-07T12:59:19;4.80;;;3.60;;
1350;SDS011;669;50.206;9.998;2024-01-07T13:01:47;6.03;;;3.60;;
1350;SDS011;669;50.206;9.998;2024-01-07T13:04:18;3.43;;;2.90;;
1350;SDS011;669;50.206;9.998;2024-01-07T13:06:47;7.30;;;3.93;;
1350;SDS011;669;50.206;9.998;2024-01-07T13:09:15;7.10;;;4.10;;
1350;SDS011;669;50.206;9.998;2024-01-07T13:11:43;5.10;;;3.87;;
1350;SDS011;669;50.206;9.998;2024-01-07T13:14:12;4.17;;;3.30;;
1350;SDS011;669;50.206;9.998;2024-01-07T13:16:40;3.73;;;2.70;;
1350;SDS011;669;50.206;9.998;2024-01-07T13:19:08;6.03;;;3.57;;
1350;SDS011;669;50.206;9.998;2024-01-07T13:21:38;5.87;;;3.00;;
1350;SDS011;669;50.206;9.998;2024-01-07T13:24:08;3.37;;;3.07;;
1350;SDS011;669;50.206;9.998;2024-01-07T13:26:36;4.00;;;3.27;;
1350;SDS011;669;50.206;9.998;2024-01-07T13:29:04;7.53;;;3.30;;
1350;SDS011;669;50.206;9.998;2024-01-07T13:31:33;3.90;;;2.97;;
1350;SDS011;669;50.206;9.998;2024-01-07T13:34:02;2.70;;;2.37;;
1350;SDS011;669;50.206;9.998;2024-01-07T13:36:30;3.93;;;2.87;;
1350;SDS011;669;50.206;9.998;2024-01-07T13:38:58;4.13;;;3.10;;
1350;SDS011;669;50.206;9.998;2024-01-07T13:41:26;4.00;;;2.43;;
1350;SDS011;669;50.206;9.998;2024-01-07T13:43:55;4.60;;;3.40;;
1350;SDS011;669;50.206;9.998;2024-01-07T13:46:23;3.00;;;2.50;;
1350;SDS011;669;50.206;9.998;2024-01-07T13:48:55;2.40;;;2.20;;
1350;SDS011;669;50.206;9.998;2024-01-07T13:51:24;2.77;;;2.23;;
1350;SDS011;669;50.206;9.998;2024-01-07T13:53:52;2.00;;;1.90;;
1350;SDS011;669;50.206;9.998;2024-01-07T13:56:20;4.63;;;2.80;;
1350;SDS011;669;50.206;9.998;2024-01-07T13:58:48;2.20;;;1.90;;
1350;SDS011;669;50.206;9.998;2024-01-07T14:01:16;1.77;;;1.67;;
1350;SDS011;669;50.206;9.998;2024-01-07T14:03:44;2.63;;;2.20;;
1350;SDS011;669;50.206;9.998;2024-01-07T14:06:15;1.80;;;1.70;;
1350;SDS011;669;50.206;9.998;2024-01-07T14:08:43;2.90;;;2.57;;
1350;SDS011;669;50.206;9.998;2024-01-07T14:11:11;2.30;;;2.10;;
1350;SDS011;669;50.206;9.998;2024-01-07T14:13:38;1.90;;;1.80;;
1350;SDS011;669;50.206;9.998;2024-01-07T14:16:06;3.00;;;2.17;;
1350;SDS011;669;50.206;9.998;2024-01-07T14:18:34;2.33;;;1.93;;
1350;SDS011;669;50.206;9.998;2024-01-07T14:21:02;2.63;;;2.07;;
1350;SDS011;669;50.206;9.998;2024-01-07T14:23:32;2.53;;;1.77;;
1350;SDS011;669;50.206;9.998;2024-01-07T14:26:02;3.97;;;2.30;;
1350;SDS011;669;50.206;9.998;2024-01-07T14:28:30;2.63;;;1.90;;
1350;SDS011;669;50.206;9.998;2024-01-07T14:30:58;4.30;;;2.50;;
1350;SDS011;669;50.206;9.998;2024-01-07T14:33:26;2.50;;;2.30;;
1350;SDS011;669;50.206;9.998;2024-01-07T14:35:54;2.50;;;1.90;;
1350;SDS011;669;50.206;9.998;2024-01-07T14:38:22;3.53;;;2.07;;
1350;SDS011;669;50.206;9.998;2024-01-07T14:40:53;1.73;;;1.60;;
1350;SDS011;669;50.206;9.998;2024-01-07T14:43:22;7.00;;;2.30;;
1350;SDS011;669;50.206;9.998;2024-01-07T14:45:50;2.03;;;1.90;;
1350;SDS011;669;50.206;9.998;2024-01-07T14:48:18;3.60;;;2.17;;
1350;SDS011;669;50.206;9.998;2024-01-07T14:50:46;3.43;;;2.13;;
1350;SDS011;669;50.206;9.998;2024-01-07T14:53:14;1.83;;;1.73;;
1350;SDS011;669;50.206;9.998;2024-01-07T14:55:42;1.90;;;1.80;;
1350;SDS011;669;50.206;9.998;2024-01-07T14:58:12;2.53;;;2.10;;
1350;SDS011;669;50.206;9.998;2024-01-07T15:00:39;2.60;;;2.40;;
1350;SDS011;669;50.206;9.998;2024-01-07T15:03:08;2.60;;;2.40;;
1350;SDS011;669;50.206;9.998;2024-01-07T15:05:36;12.13;;;2.50;;
1350;SDS011;669;50.206;9.998;2024-01-07T15:08:05;3.73;;;3.40;;
1350;SDS011;669;50.206;9.998;2024-01-07T15:10:33;2.70;;;2.13;;
1350;SDS011;669;50.206;9.998;2024-01-07T15:13:01;2.40;;;2.20;;
1350;SDS011;669;50.206;9.998;2024-01-07T15:15:43;4.30;;;2.00;;
1350;SDS011;669;50.206;9.998;2024-01-07T15:18:11;2.00;;;1.90;;
1350;SDS011;669;50.206;9.998;2024-01-07T15:20:40;1.80;;;1.53;;
1350;SDS011;669;50.206;9.998;2024-01-07T15:23:08;4.10;;;2.27;;
1350;SDS011;669;50.206;9.998;2024-01-07T15:25:36;1.80;;;1.70;;
1350;SDS011;669;50.206;9.998;2024-01-07T15:28:04;2.90;;;2.10;;
1350;SDS011;669;50.206;9.998;2024-01-07T15:30:32;1.77;;;1.67;;
1350;SDS011;669;50.206;9.998;2024-01-07T15:33:02;2.30;;;2.17;;
1350;SDS011;669;50.206;9.998;2024-01-07T15:35:30;2.73;;;2.40;;
1350;SDS011;669;50.206;9.998;2024-01-07T15:37:58;3.30;;;2.30;;
1350;SDS011;669;50.206;9.998;2024-01-07T15:40:26;2.57;;;2.37;;